Time;durP1;ratioP1;P1;durP2;ratioP2;P2;SDS_P1;SDS_P2;PMS_P1;PMS_P2;Temp;Humidity;BMP_temperature;BMP_pressure;BME280_temperature;BME280_humidity;BME280_pressure;Samples;Min_cycle;Max_cycle;Signal;HPM_P1;HPM_P2
2022/01/14 00:01:44;;;;;;;;;39.00;35.75;;;;;-147.17;100.00;50349.91;5011831;28;51257;-61
2022/01/14 00:04:09;;;;;;;;;39.25;37.00;;;;;-147.17;100.00;50336.13;5015086;28;51322;-62
2022/01/14 00:06:34;;;;;;;;;39.75;37.25;;;;;-147.17;100.00;50344.00;5014447;28;51356;-61
2022/01/14 00:09:08;;;;;;;;;41.75;38.75;;;;;-147.17;100.00;50334.16;5010604;28;51788;-61
2022/01/14 00:11:36;;;;;;;;;44.00;37.50;;;;;-147.17;100.00;50336.13;5014439;28;51110;-61
2022/01/14 00:16:30;;;;;;;;;40.25;38.50;;;;;-147.17;100.00;50349.91;5017723;28;51306;-62
2022/01/14 00:18:57;;;;;;;;;42.50;37.25;;;;;-147.17;100.00;50338.09;5013566;28;52519;-61
2022/01/14 00:21:23;;;;;;;;;44.00;37.25;;;;;-147.17;100.00;50359.75;5018446;28;51168;-62
2022/01/14 00:23:51;;;;;;;;;38.25;33.25;;;;;-147.17;100.00;50342.03;5015268;28;51228;-63
2022/01/14 00:31:58;;;;;;;;;49.25;41.00;;;;;-147.17;100.00;50391.25;5010852;28;51222;-62
2022/01/14 00:34:24;;;;;;;;;40.50;36.75;;;;;-147.17;100.00;50324.31;5019985;28;51031;-60
2022/01/14 00:36:49;;;;;;;;;30.50;29.00;;;;;-147.17;100.00;50324.31;5013459;28;51110;-60
2022/01/14 00:39:15;;;;;;;;;40.00;36.00;;;;;-147.17;100.00;50342.03;5021090;28;53097;-59
2022/01/14 00:41:41;;;;;;;;;44.00;39.25;;;;;-147.17;100.00;50344.00;5025502;28;51986;-60
2022/01/14 00:44:12;;;;;;;;;43.50;38.00;;;;;-147.17;100.00;50381.41;5019627;28;51802;-60
2022/01/14 00:46:39;;;;;;;;;47.50;40.75;;;;;-147.17;100.00;50359.75;5017932;28;51280;-63
2022/01/14 00:49:05;;;;;;;;;41.25;35.00;;;;;-147.17;100.00;50363.69;5015506;28;51751;-61
2022/01/14 00:51:30;;;;;;;;;36.00;34.50;;;;;-147.17;100.00;50363.69;5015822;28;50974;-60
2022/01/14 00:53:56;;;;;;;;;34.75;31.50;;;;;-147.17;100.00;50338.09;5016963;28;51022;-61
2022/01/14 01:01:34;;;;;;;;;35.75;31.75;;;;;-147.17;100.00;50359.75;5020300;28;51375;-60
2022/01/14 01:04:00;;;;;;;;;40.25;33.50;;;;;-147.17;100.00;50351.88;5034308;28;50971;-60
2022/01/14 01:06:26;;;;;;;;;31.50;30.50;;;;;-147.17;100.00;50334.16;5035184;28;50954;-62
2022/01/14 01:08:52;;;;;;;;;39.50;33.00;;;;;-147.17;100.00;50344.00;5018281;28;52201;-61
2022/01/14 01:11:24;;;;;;;;;42.75;37.75;;;;;-147.17;100.00;50391.25;5028517;28;50998;-61
2022/01/14 01:14:00;;;;;;;;;37.25;33.75;;;;;-147.17;100.00;50308.59;5027034;28;51119;-60
2022/01/14 01:16:25;;;;;;;;;38.00;32.50;;;;;-147.17;100.00;50361.72;5031427;28;51090;-61
2022/01/14 01:18:51;;;;;;;;;33.50;30.50;;;;;-147.17;100.00;50357.78;5032660;28;52120;-60
2022/01/14 01:21:16;;;;;;;;;32.50;29.00;;;;;-147.17;100.00;50324.31;5035032;28;51010;-61
2022/01/14 01:23:41;;;;;;;;;36.25;33.75;;;;;-147.17;100.00;50353.84;5033604;28;50961;-60
2022/01/14 01:26:14;;;;;;;;;33.25;32.25;;;;;-147.17;100.00;50324.31;5030213;28;51285;-60
2022/01/14 01:28:54;;;;;;;;;38.25;30.75;;;;;-147.17;100.00;50340.06;5020004;28;53111;-60
2022/01/14 01:31:36;;;;;;;;;39.00;36.25;;;;;-147.17;100.00;50351.88;5014625;28;51133;-60
2022/01/14 01:34:13;;;;;;;;;38.25;34.00;;;;;-147.17;100.00;50381.41;5015749;28;51137;-60
2022/01/14 01:36:41;;;;;;;;;28.00;26.75;;;;;-147.17;100.00;50351.88;5031507;28;51203;-60
2022/01/14 01:39:10;;;;;;;;;34.75;30.75;;;;;-147.17;100.00;50349.91;5015013;28;52013;-60
2022/01/14 01:41:39;;;;;;;;;35.75;35.50;;;;;-147.17;100.00;50349.91;5025393;28;51135;-60
2022/01/14 01:44:07;;;;;;;;;40.25;35.75;;;;;-147.17;100.00;50357.78;5019213;28;51071;-62
2022/01/14 01:46:37;;;;;;;;;37.50;35.25;;;;;-147.17;100.00;50359.75;5014979;28;51139;-60
2022/01/14 01:49:03;;;;;;;;;39.75;38.00;;;;;-147.17;100.00;50351.88;5032443;28;52770;-61
2022/01/14 01:51:28;;;;;;;;;41.50;37.00;;;;;-147.17;100.00;50340.06;5033121;28;50904;-60
2022/01/14 01:53:54;;;;;;;;;39.25;34.25;;;;;-147.17;100.00;50361.72;5015951;28;51508;-61
2022/01/14 01:56:19;;;;;;;;;20.25;18.00;;;;;-147.17;100.00;50383.38;5019149;28;50912;-60
2022/01/14 01:58:45;;;;;;;;;33.00;29.25;;;;;-147.17;100.00;50371.56;5028126;28;51711;-61
2022/01/14 02:01:10;;;;;;;;;44.00;37.00;;;;;-147.17;100.00;50336.13;5018726;28;50944;-60
2022/01/14 02:03:37;;;;;;;;;33.50;31.75;;;;;-147.17;100.00;50355.81;5020046;28;51106;-61
2022/01/14 02:06:04;;;;;;;;;34.25;31.00;;;;;-147.17;100.00;50345.97;5014639;28;50993;-61
2022/01/14 02:08:30;;;;;;;;;41.75;39.75;;;;;-147.17;100.00;50367.63;5014224;28;51147;-61
2022/01/14 02:10:56;;;;;;;;;42.50;38.25;;;;;-147.17;100.00;50336.13;5015750;28;51205;-61
2022/01/14 02:13:22;;;;;;;;;38.00;36.50;;;;;-147.17;100.00;50355.81;5030764;28;51045;-61
2022/01/14 02:23:52;;;;;;;;;35.25;33.50;;;;;-147.17;100.00;50332.19;5024626;28;51016;-60
2022/01/14 02:26:19;;;;;;;;;39.00;33.25;;;;;-147.17;100.00;50365.66;5032601;28;50973;-61
2022/01/14 02:28:47;;;;;;;;;48.50;42.25;;;;;-147.17;100.00;50365.66;5030274;28;52200;-61
2022/01/14 02:31:13;;;;;;;;;36.25;32.50;;;;;-147.17;100.00;50367.63;5017962;28;51291;-61
2022/01/14 02:33:39;;;;;;;;;40.75;36.25;;;;;-147.17;100.00;50371.56;5012673;28;52451;-61
2022/01/14 02:36:05;;;;;;;;;37.25;33.00;;;;;-147.17;100.00;50367.63;5017599;28;51035;-61
2022/01/14 02:38:30;;;;;;;;;36.25;35.00;;;;;-147.17;100.00;50334.16;5033121;28;51101;-61
2022/01/14 02:40:56;;;;;;;;;36.25;33.00;;;;;-147.17;100.00;50375.50;5033442;28;51094;-61
2022/01/14 02:43:23;;;;;;;;;37.50;35.00;;;;;-147.17;100.00;50387.31;5023879;28;51492;-61
2022/01/14 02:45:54;;;;;;;;;39.75;37.50;;;;;-147.17;100.00;50361.72;5032490;28;50863;-61
2022/01/14 02:48:27;;;;;;;;;36.25;34.00;;;;;-147.17;100.00;50355.81;5030234;28;51855;-60
2022/01/14 02:55:50;;;;;;;;;34.75;33.25;;;;;-147.17;100.00;50351.88;5021187;28;51053;-60
2022/01/14 02:58:16;;;;;;;;;38.00;32.50;;;;;-147.17;100.00;50357.78;5023153;28;51173;-61
2022/01/14 03:00:42;;;;;;;;;37.50;33.75;;;;;-147.17;100.00;50347.94;5013303;28;51080;-61
2022/01/14 03:03:09;;;;;;;;;34.75;30.75;;;;;-147.17;100.00;50340.06;5016658;28;51053;-61
2022/01/14 03:05:34;;;;;;;;;36.25;34.50;;;;;-147.17;100.00;50353.84;5031247;28;51164;-61
2022/01/14 03:08:00;;;;;;;;;38.25;35.00;;;;;-147.17;100.00;50379.44;5019646;28;52269;-61
2022/01/14 03:10:26;;;;;;;;;37.50;34.00;;;;;-147.17;100.00;50326.28;5013426;28;51205;-61
2022/01/14 03:12:51;;;;;;;;;35.75;34.50;;;;;-147.17;100.00;50371.56;5025534;28;51169;-61
2022/01/14 03:15:17;;;;;;;;;42.00;36.50;;;;;-147.17;100.00;50363.69;5031873;28;51541;-61
2022/01/14 03:17:43;;;;;;;;;38.50;33.00;;;;;-147.17;100.00;50347.94;5016966;28;51386;-61
2022/01/14 03:20:22;;;;;;;;;41.00;34.00;;;;;-147.17;100.00;50328.25;5033306;28;50920;-61
2022/01/14 03:23:02;;;;;;;;;45.00;39.00;;;;;-147.17;100.00;50359.75;5015911;28;51227;-61
2022/01/14 03:28:24;;;;;;;;;37.00;35.75;;;;;-147.17;100.00;50355.81;5012720;28;52050;-61
2022/01/14 03:30:52;;;;;;;;;35.50;33.00;;;;;-147.17;100.00;50391.25;5020557;28;50846;-61
2022/01/14 03:33:19;;;;;;;;;39.75;35.75;;;;;-147.17;100.00;50351.88;5016051;28;51153;-62
2022/01/14 03:35:45;;;;;;;;;29.25;28.00;;;;;-147.17;100.00;50367.63;5012387;28;51366;-61
2022/01/14 03:38:11;;;;;;;;;37.50;36.25;;;;;-147.17;100.00;50363.69;5029663;28;51971;-61
2022/01/14 03:40:36;;;;;;;;;38.00;35.00;;;;;-147.17;100.00;50351.88;5031559;28;51095;-61
2022/01/14 03:43:01;;;;;;;;;36.75;32.25;;;;;-147.17;100.00;50347.94;5032411;28;51121;-61
2022/01/14 03:45:27;;;;;;;;;40.75;35.25;;;;;-147.17;100.00;50371.56;5012905;28;50900;-61
2022/01/14 03:47:52;;;;;;;;;39.50;35.25;;;;;-147.17;100.00;50375.50;5017676;28;52834;-61
2022/01/14 03:50:18;;;;;;;;;36.75;32.00;;;;;-147.17;100.00;50357.78;5015196;28;51030;-61
2022/01/14 03:52:43;;;;;;;;;37.75;34.00;;;;;-147.17;100.00;50353.84;5016519;28;51354;-62
2022/01/14 03:55:09;;;;;;;;;37.50;36.25;;;;;-147.17;100.00;50332.19;5031906;28;51041;-61
2022/01/14 03:57:34;;;;;;;;;41.25;37.25;;;;;-147.17;100.00;50336.13;5022853;28;52324;-61
2022/01/14 03:59:59;;;;;;;;;37.50;36.00;;;;;-147.17;100.00;50351.88;5013284;28;50970;-61
2022/01/14 04:02:25;;;;;;;;;36.25;33.50;;;;;-147.17;100.00;50367.63;5021035;28;51326;-61
2022/01/14 04:04:50;;;;;;;;;47.50;40.50;;;;;-147.17;100.00;50357.78;5030162;28;51027;-61
2022/01/14 04:07:15;;;;;;;;;39.25;37.50;;;;;-147.17;100.00;50391.25;5024626;28;51143;-61
2022/01/14 04:09:41;;;;;;;;;43.50;38.00;;;;;-147.17;100.00;50432.59;5013873;28;51189;-61
2022/01/14 04:12:09;;;;;;;;;35.75;35.00;;;;;-147.17;100.00;50334.16;5012574;28;51072;-61
2022/01/14 04:17:03;;;;;;;;;37.00;36.00;;;;;-147.17;100.00;50357.78;5032144;28;51063;-61
2022/01/14 04:19:29;;;;;;;;;39.75;36.00;;;;;-147.17;100.00;50361.72;5020787;28;50987;-61
2022/01/14 04:21:55;;;;;;;;;33.50;32.00;;;;;-147.17;100.00;50361.72;5028774;28;51116;-61
2022/01/14 04:24:21;;;;;;;;;43.00;39.00;;;;;-147.17;100.00;50365.66;5022146;28;51245;-61
2022/01/14 04:26:46;;;;;;;;;37.25;36.25;;;;;-147.17;100.00;50363.69;5011752;28;51008;-60
2022/01/14 04:29:12;;;;;;;;;42.00;39.25;;;;;-147.17;100.00;50334.16;5015155;28;51063;-60
2022/01/14 04:31:37;;;;;;;;;33.50;33.00;;;;;-147.17;100.00;50363.69;5025508;28;51283;-61
2022/01/14 04:34:03;;;;;;;;;42.75;37.00;;;;;-147.17;100.00;50347.94;5019320;28;51079;-61
2022/01/14 04:36:28;;;;;;;;;43.75;39.00;;;;;-147.17;100.00;50369.59;5018052;28;51311;-61
2022/01/14 04:38:53;;;;;;;;;39.75;35.75;;;;;-147.17;100.00;50353.84;5013841;28;51182;-61
2022/01/14 04:41:19;;;;;;;;;51.50;40.00;;;;;-147.17;100.00;50371.56;5020449;28;51149;-61
2022/01/14 04:43:44;;;;;;;;;42.75;38.50;;;;;-147.17;100.00;50369.59;5015848;28;51289;-60
2022/01/14 04:48:37;;;;;;;;;41.75;36.75;;;;;-147.17;100.00;50367.63;5011690;28;50987;-60
2022/01/14 04:51:07;;;;;;;;;44.00;37.50;;;;;-147.17;100.00;50359.75;5023353;28;51267;-60
2022/01/14 04:53:33;;;;;;;;;52.50;43.00;;;;;-147.17;100.00;50371.56;5014257;28;51101;-61
2022/01/14 04:55:58;;;;;;;;;46.50;39.00;;;;;-147.17;100.00;50375.50;5014987;28;52685;-61
2022/01/14 04:58:26;;;;;;;;;31.00;28.00;;;;;-147.17;100.00;50387.31;5022957;28;51039;-61
2022/01/14 05:00:52;;;;;;;;;40.50;36.50;;;;;-147.17;100.00;50363.69;5029653;28;51201;-60
2022/01/14 05:03:17;;;;;;;;;38.75;36.50;;;;;-147.17;100.00;50353.84;5024603;28;51037;-59
2022/01/14 05:05:46;;;;;;;;;29.50;26.25;;;;;-147.17;100.00;50377.47;5029561;28;52856;-61
2022/01/14 05:08:19;;;;;;;;;39.25;38.50;;;;;-147.17;100.00;50357.78;5022975;28;51130;-62
2022/01/14 05:13:25;;;;;;;;;43.00;39.25;;;;;-147.17;100.00;50387.31;5028728;28;51015;-60
2022/01/14 05:15:51;;;;;;;;;46.25;40.75;;;;;-147.17;100.00;50371.56;5016196;28;51942;-61
2022/01/14 05:18:17;;;;;;;;;36.50;34.75;;;;;-147.17;100.00;50365.66;5022153;28;51348;-64
2022/01/14 05:20:42;;;;;;;;;37.50;33.00;;;;;-147.17;100.00;50359.75;5029085;28;51044;-60
2022/01/14 05:23:08;;;;;;;;;37.25;36.25;;;;;-147.17;100.00;50369.59;5016153;28;51258;-60
2022/01/14 05:25:33;;;;;;;;;38.25;35.25;;;;;-147.17;100.00;50351.88;5024813;28;51729;-62
2022/01/14 05:27:59;;;;;;;;;39.75;35.00;;;;;-147.17;100.00;50365.66;5023422;28;50838;-61
2022/01/14 05:30:25;;;;;;;;;41.25;38.00;;;;;-147.17;100.00;50379.44;5027001;28;51180;-61
2022/01/14 05:32:52;;;;;;;;;47.50;41.50;;;;;-147.17;100.00;50351.88;5016580;28;51291;-61
2022/01/14 05:35:23;;;;;;;;;44.00;39.25;;;;;-147.17;100.00;50349.91;5026828;28;51081;-61
2022/01/14 05:37:49;;;;;;;;;35.75;33.75;;;;;-147.17;100.00;50359.75;5020436;28;51099;-61
2022/01/14 05:40:16;;;;;;;;;48.00;41.25;;;;;-147.17;100.00;50363.69;5026066;28;51196;-62
2022/01/14 05:42:41;;;;;;;;;38.50;34.50;;;;;-147.17;100.00;50355.81;5030265;28;50969;-61
2022/01/14 05:45:09;;;;;;;;;40.50;37.00;;;;;-147.17;100.00;50375.50;5023171;28;52351;-61
2022/01/14 05:47:37;;;;;;;;;42.25;37.75;;;;;-147.17;100.00;50349.91;5029210;28;51098;-61
2022/01/14 05:50:04;;;;;;;;;41.00;35.00;;;;;-147.17;100.00;50342.03;5032906;28;51209;-62
2022/01/14 05:52:30;;;;;;;;;36.00;34.75;;;;;-147.17;100.00;50367.63;5016020;28;51941;-61
2022/01/14 05:54:55;;;;;;;;;41.75;38.50;;;;;-147.17;100.00;50336.13;5014809;28;51843;-61
2022/01/14 05:57:21;;;;;;;;;38.75;35.25;;;;;-147.17;100.00;50377.47;5016441;28;51275;-63
2022/01/14 05:59:47;;;;;;;;;36.00;35.25;;;;;-147.17;100.00;50355.81;5029048;28;51070;-61
2022/01/14 06:02:12;;;;;;;;;43.50;40.25;;;;;-147.17;100.00;50363.69;5016442;28;51247;-61
2022/01/14 06:04:38;;;;;;;;;43.50;39.00;;;;;-147.17;100.00;50347.94;5021507;28;51879;-61
2022/01/14 06:07:04;;;;;;;;;38.50;34.75;;;;;-147.17;100.00;50340.06;5020636;28;50951;-61
2022/01/14 06:09:29;;;;;;;;;66.75;53.50;;;;;-147.17;100.00;50375.50;5033229;28;51249;-61
2022/01/14 06:11:55;;;;;;;;;38.50;35.75;;;;;-147.17;100.00;50349.91;5027156;28;51284;-61
2022/01/14 06:14:20;;;;;;;;;46.50;39.00;;;;;-147.17;100.00;50344.00;5025881;28;53137;-62
2022/01/14 06:16:46;;;;;;;;;43.50;40.00;;;;;-147.17;100.00;50367.63;5020648;28;51247;-61
2022/01/14 06:19:12;;;;;;;;;40.50;36.50;;;;;-147.17;100.00;50347.94;5030608;28;51289;-61
2022/01/14 06:21:37;;;;;;;;;39.00;36.75;;;;;-147.17;100.00;50355.81;5020906;28;51206;-61
2022/01/14 06:24:03;;;;;;;;;39.50;37.25;;;;;-147.17;100.00;50371.56;5022760;28;53291;-60
2022/01/14 06:26:28;;;;;;;;;41.00;38.00;;;;;-147.17;100.00;50336.13;5022509;28;50831;-60
2022/01/14 06:28:54;;;;;;;;;38.50;37.00;;;;;-147.17;100.00;50344.00;5015542;28;51197;-61
2022/01/14 06:31:19;;;;;;;;;42.75;37.50;;;;;-147.17;100.00;50359.75;5017182;28;51139;-60
2022/01/14 06:33:45;;;;;;;;;30.00;25.00;;;;;-147.17;100.00;50351.88;5013178;28;52710;-60
2022/01/14 06:36:10;;;;;;;;;40.25;38.00;;;;;-147.17;100.00;50347.94;5016819;28;51156;-60
2022/01/14 06:38:35;;;;;;;;;44.00;40.50;;;;;-147.17;100.00;50347.94;5014213;28;51574;-61
2022/01/14 06:41:02;;;;;;;;;24.50;22.00;;;;;-147.17;100.00;50336.13;5016612;28;53050;-60
2022/01/14 06:43:27;;;;;;;;;38.75;34.75;;;;;-147.17;100.00;50347.94;5029854;28;52709;-60
2022/01/14 06:45:52;;;;;;;;;36.75;35.75;;;;;-147.17;100.00;50334.16;5016164;28;51074;-60
2022/01/14 06:48:18;;;;;;;;;32.75;28.50;;;;;-147.17;100.00;50363.69;5013145;28;51047;-60
2022/01/14 06:50:43;;;;;;;;;35.50;33.00;;;;;-147.17;100.00;50347.94;5021384;28;51187;-60
2022/01/14 06:53:09;;;;;;;;;41.75;35.25;;;;;-147.17;100.00;50361.72;5017575;28;51787;-60
2022/01/14 06:55:34;;;;;;;;;39.75;38.25;;;;;-147.17;100.00;50328.25;5022819;28;51505;-60
2022/01/14 06:57:59;;;;;;;;;33.75;32.00;;;;;-147.17;100.00;50349.91;5020264;28;51066;-60
2022/01/14 07:00:25;;;;;;;;;38.25;36.00;;;;;-147.17;100.00;50371.56;5023120;28;51168;-61
2022/01/14 07:02:51;;;;;;;;;20.75;18.75;;;;;-147.17;100.00;50369.59;5017461;28;52944;-61
2022/01/14 07:05:16;;;;;;;;;37.00;34.75;;;;;-147.17;100.00;50357.78;5019925;28;51180;-60
2022/01/14 07:07:41;;;;;;;;;40.00;37.50;;;;;-147.17;100.00;50347.94;5027183;28;51095;-60
2022/01/14 07:10:08;;;;;;;;;42.25;39.00;;;;;-147.17;100.00;50328.25;5023773;28;51310;-60
2022/01/14 07:12:36;;;;;;;;;39.25;35.00;;;;;-147.17;100.00;50324.31;5021437;28;50967;-61
2022/01/14 07:15:04;;;;;;;;;39.25;35.25;;;;;-147.17;100.00;50353.84;5013809;28;51191;-61
2022/01/14 07:17:30;;;;;;;;;33.50;29.75;;;;;-147.17;100.00;50338.09;5021149;28;51043;-61
2022/01/14 07:19:59;;;;;;;;;40.25;37.75;;;;;-147.17;100.00;50347.94;5014951;28;51031;-61
2022/01/14 07:22:24;;;;;;;;;35.25;31.00;;;;;-147.17;100.00;50336.13;5020313;28;52869;-61
2022/01/14 07:24:50;;;;;;;;;37.50;33.75;;;;;-147.17;100.00;50357.78;5012317;28;51121;-61
2022/01/14 07:27:16;;;;;;;;;40.25;36.50;;;;;-147.17;100.00;50338.09;5025061;28;51408;-64
2022/01/14 07:29:42;;;;;;;;;37.50;34.00;;;;;-147.17;100.00;50334.16;5027808;28;51305;-62
2022/01/14 07:32:08;;;;;;;;;36.00;35.25;;;;;-147.17;100.00;50347.94;5024158;28;52309;-61
2022/01/14 07:34:34;;;;;;;;;38.75;37.50;;;;;-147.17;100.00;50336.13;5019859;28;51209;-61
2022/01/14 07:37:00;;;;;;;;;36.00;35.00;;;;;-147.17;100.00;50338.09;5018750;28;51364;-62
2022/01/14 07:39:25;;;;;;;;;34.75;33.50;;;;;-147.17;100.00;50326.28;5012881;28;51313;-62
2022/01/14 07:41:51;;;;;;;;;41.50;35.00;;;;;-147.17;100.00;50334.16;5021967;28;54121;-62
2022/01/14 07:44:17;;;;;;;;;35.00;34.25;;;;;-147.17;100.00;50330.22;5019253;28;51145;-63
2022/01/14 07:46:43;;;;;;;;;42.75;38.25;;;;;-147.17;100.00;50351.88;5024404;28;51266;-61
2022/01/14 07:49:09;;;;;;;;;39.25;35.25;;;;;-147.17;100.00;50351.88;5019775;28;51276;-66
2022/01/14 07:51:35;;;;;;;;;32.25;31.00;;;;;-147.17;100.00;50336.13;5021650;28;51708;-61
2022/01/14 07:54:05;;;;;;;;;34.25;31.50;;;;;-147.17;100.00;50338.09;5027244;28;51092;-61
2022/01/14 07:56:32;;;;;;;;;34.00;33.75;;;;;-147.17;100.00;50320.38;5013211;28;51154;-62
2022/01/14 07:58:58;;;;;;;;;40.25;36.00;;;;;-147.17;100.00;50320.38;5025048;28;51465;-61
2022/01/14 08:01:23;;;;;;;;;28.00;28.00;;;;;-147.17;100.00;50344.00;5020850;28;51174;-62
2022/01/14 08:03:49;;;;;;;;;30.75;28.75;;;;;-147.17;100.00;50359.75;5020005;28;51149;-63
2022/01/14 08:06:14;;;;;;;;;32.25;32.00;;;;;-147.17;100.00;50344.00;5024010;28;51324;-63
2022/01/14 08:08:39;;;;;;;;;27.00;25.00;;;;;-147.17;100.00;50320.38;5019003;28;51086;-63
2022/01/14 08:11:05;;;;;;;;;33.75;29.00;;;;;-147.17;100.00;50306.63;5013053;28;51783;-65
2022/01/14 08:13:31;;;;;;;;;38.00;35.25;;;;;-147.17;100.00;50324.31;5021535;28;51063;-63
2022/01/14 08:15:56;;;;;;;;;35.50;34.00;;;;;-147.17;100.00;50347.94;5028177;28;53173;-62
2022/01/14 08:18:22;;;;;;;;;36.25;34.75;;;;;-147.17;100.00;50347.94;5020559;28;51345;-62
2022/01/14 08:20:47;;;;;;;;;41.00;37.50;;;;;-147.17;100.00;50347.94;5006873;28;51350;-62
2022/01/14 08:23:12;;;;;;;;;34.00;32.00;;;;;-147.17;100.00;50340.06;5007247;28;51383;-62
2022/01/14 08:25:38;;;;;;;;;42.25;34.00;;;;;-147.17;100.00;50340.06;5008216;28;51477;-63
2022/01/14 08:28:04;;;;;;;;;40.50;36.50;;;;;-147.17;100.00;50324.31;5008515;28;52141;-62
2022/01/14 08:30:29;;;;;;;;;37.25;36.00;;;;;-147.17;100.00;50351.88;5012485;28;51290;-61
2022/01/14 08:32:55;;;;;;;;;37.75;35.50;;;;;-147.17;100.00;50326.28;5014767;28;51381;-71
2022/01/14 08:35:20;;;;;;;;;39.50;37.50;;;;;-147.17;100.00;50336.13;5013284;28;52663;-71
2022/01/14 08:37:45;;;;;;;;;40.75;34.50;;;;;-147.17;100.00;50359.75;5013230;28;51018;-69
2022/01/14 08:40:11;;;;;;;;;36.25;33.75;;;;;-147.17;100.00;50357.78;5024597;28;52284;-71
2022/01/14 08:42:37;;;;;;;;;36.75;35.50;;;;;-147.17;100.00;50369.59;5008052;28;52145;-71
2022/01/14 08:45:04;;;;;;;;;38.00;35.00;;;;;-147.17;100.00;50347.94;5025072;28;51103;-64
2022/01/14 08:47:30;;;;;;;;;36.25;34.75;;;;;-147.17;100.00;50371.56;5035260;28;50924;-60
2022/01/14 08:49:56;;;;;;;;;40.00;38.50;;;;;-147.17;100.00;50336.13;5032557;28;51202;-61
2022/01/14 08:52:21;;;;;;;;;38.25;34.25;;;;;-147.17;100.00;50347.94;5034877;28;51011;-60
2022/01/14 08:54:46;;;;;;;;;37.25;34.25;;;;;-147.17;100.00;50377.47;5027172;28;51230;-60
2022/01/14 08:57:13;;;;;;;;;35.25;34.25;;;;;-147.17;100.00;50371.56;5014644;28;51379;-61
2022/01/14 08:59:40;;;;;;;;;36.25;33.25;;;;;-147.17;100.00;50363.69;5013259;28;51884;-60
2022/01/14 09:02:06;;;;;;;;;37.50;32.50;;;;;-147.17;100.00;50357.78;5015074;28;51146;-60
2022/01/14 09:04:33;;;;;;;;;37.75;33.75;;;;;-147.17;100.00;50363.69;5031881;28;50964;-61
2022/01/14 09:06:59;;;;;;;;;33.75;29.50;;;;;-147.17;100.00;50365.66;5015083;28;52316;-61
2022/01/14 09:09:24;;;;;;;;;39.25;37.75;;;;;-147.17;100.00;50379.44;5014414;28;52458;-60
2022/01/14 09:11:50;;;;;;;;;43.75;37.50;;;;;-147.17;100.00;50371.56;5026899;28;50965;-60
2022/01/14 09:14:15;;;;;;;;;39.25;34.75;;;;;-147.17;100.00;50383.38;5020930;28;51257;-59
2022/01/14 09:16:41;;;;;;;;;38.25;37.25;;;;;-147.17;100.00;50340.06;5015186;28;51154;-61
2022/01/14 09:19:06;;;;;;;;;37.00;32.00;;;;;-147.17;100.00;50383.38;5018878;28;52723;-59
2022/01/14 09:21:32;;;;;;;;;44.25;37.75;;;;;-147.17;100.00;50391.25;5033986;28;51300;-60
2022/01/14 09:24:03;;;;;;;;;41.75;36.75;;;;;-147.17;100.00;50387.31;5028057;28;51002;-59
2022/01/14 09:26:35;;;;;;;;;36.25;34.50;;;;;-147.17;100.00;50373.53;5024284;28;51183;-61
2022/01/14 09:29:02;;;;;;;;;43.25;39.25;;;;;-147.17;100.00;50389.28;5028880;28;50979;-59
2022/01/14 09:31:27;;;;;;;;;45.25;39.75;;;;;-147.17;100.00;50399.13;5012990;28;51201;-60
2022/01/14 09:33:52;;;;;;;;;33.50;33.00;;;;;-147.17;100.00;50414.88;5023603;28;51335;-63
2022/01/14 09:36:18;;;;;;;;;36.50;33.25;;;;;-147.17;100.00;50424.72;5033558;28;51269;-60
2022/01/14 09:38:44;;;;;;;;;37.75;35.00;;;;;-147.17;100.00;50403.06;5029948;28;51955;-59
2022/01/14 09:41:10;;;;;;;;;45.50;39.75;;;;;-147.17;100.00;50383.38;5009428;28;51566;-60
2022/01/14 09:43:38;;;;;;;;;42.00;38.00;;;;;-147.17;100.00;50414.88;5013018;28;51345;-61
2022/01/14 09:46:05;;;;;;;;;46.50;38.50;;;;;-147.17;100.00;50407.00;5033000;28;51401;-60
2022/01/14 09:48:32;;;;;;;;;37.75;34.25;;;;;-147.17;100.00;50397.16;5032130;28;51097;-59
2022/01/14 09:50:58;;;;;;;;;45.25;40.25;;;;;-147.17;100.00;50387.31;5017950;28;51413;-61
2022/01/14 09:53:26;;;;;;;;;29.25;28.50;;;;;-147.17;100.00;50407.00;5012067;28;51171;-61
2022/01/14 09:55:51;;;;;;;;;37.75;35.25;;;;;-147.17;100.00;50448.34;5012915;28;50954;-60
2022/01/14 09:58:17;;;;;;;;;44.75;39.50;;;;;-147.17;100.00;50434.56;5017383;28;52803;-60
2022/01/14 10:00:43;;;;;;;;;40.25;35.75;;;;;-147.17;100.00;50458.19;5033688;28;51203;-60
2022/01/14 10:03:18;;;;;;;;;46.25;40.25;;;;;-147.17;100.00;50462.13;5013676;28;51255;-61
2022/01/14 10:05:47;;;;;;;;;46.00;37.25;;;;;-147.17;100.00;50458.19;5029611;28;51317;-60
2022/01/14 10:08:18;;;;;;;;;45.25;40.50;;;;;-147.17;100.00;50430.63;5033759;28;50972;-61
2022/01/14 10:10:47;;;;;;;;;51.50;42.00;;;;;-147.17;100.00;50452.28;5033045;28;50965;-61
2022/01/14 10:13:18;;;;;;;;;35.25;32.00;;;;;-147.17;100.00;50450.31;5020090;28;51154;-61
2022/01/14 10:15:49;;;;;;;;;50.00;42.25;;;;;-147.17;100.00;50454.25;5013088;28;51118;-61
2022/01/14 10:18:18;;;;;;;;;37.25;33.00;;;;;-147.17;100.00;50454.25;5012060;28;52708;-60
2022/01/14 10:20:44;;;;;;;;;47.00;39.50;;;;;-147.17;100.00;50466.06;5020984;28;51091;-60
2022/01/14 10:23:12;;;;;;;;;38.00;36.25;;;;;-147.17;100.00;50442.44;5031162;28;51200;-59
2022/01/14 10:25:38;;;;;;;;;48.50;41.50;;;;;-147.17;100.00;50464.09;5031253;28;50885;-61
2022/01/14 10:28:16;;;;;;;;;43.00;39.75;;;;;-147.17;100.00;50430.63;5029859;28;51004;-61
2022/01/14 10:30:44;;;;;;;;;41.50;36.75;;;;;-147.17;100.00;50414.88;5022191;28;50877;-61
2022/01/14 10:33:10;;;;;;;;;45.50;40.00;;;;;-147.17;100.00;50420.78;5033366;28;51085;-60
2022/01/14 10:35:45;;;;;;;;;52.00;41.00;;;;;-147.17;100.00;50428.66;5024092;28;51195;-61
2022/01/14 10:38:16;;;;;;;;;45.75;39.75;;;;;-147.17;100.00;50450.31;5013167;28;52164;-60
2022/01/14 10:40:43;;;;;;;;;44.50;40.75;;;;;-147.17;100.00;50454.25;5011153;28;52603;-60
2022/01/14 10:43:11;;;;;;;;;53.25;40.50;;;;;-147.17;100.00;50428.66;5013916;28;51315;-60
2022/01/14 10:45:37;;;;;;;;;41.25;37.50;;;;;-147.17;100.00;50438.50;5011942;28;51180;-59
2022/01/14 10:48:08;;;;;;;;;53.25;41.25;;;;;-147.17;100.00;50446.38;5032333;28;51968;-59
2022/01/14 10:50:34;;;;;;;;;48.75;39.25;;;;;-147.17;100.00;50452.28;5030703;28;51192;-61
2022/01/14 10:53:01;;;;;;;;;50.00;44.25;;;;;-147.17;100.00;50450.31;5025991;28;51331;-61
2022/01/14 10:55:57;;;;;;;;;49.50;40.25;;;;;-147.17;100.00;50432.59;5017619;28;51204;-60
2022/01/14 10:58:25;;;;;;;;;37.25;35.25;;;;;-147.17;100.00;50420.78;5007597;28;52242;-61
2022/01/14 11:00:59;;;;;;;;;56.50;44.25;;;;;-147.17;100.00;50438.50;5012296;28;51249;-60
2022/01/14 11:03:45;;;;;;;;;49.25;42.75;;;;;-147.17;100.00;50456.22;5018401;28;51374;-60
2022/01/14 11:06:24;;;;;;;;;54.00;43.75;;;;;-147.17;100.00;50434.56;5032730;28;50907;-60
2022/01/14 11:09:00;;;;;;;;;30.75;28.75;;;;;-147.17;100.00;50426.69;5017325;28;51682;-60
2022/01/14 11:11:38;;;;;;;;;47.25;41.50;;;;;-147.17;100.00;50448.34;5012224;28;50969;-61
2022/01/14 11:14:04;;;;;;;;;51.50;42.00;;;;;-147.17;100.00;50460.16;5012344;28;51165;-60
2022/01/14 11:16:30;;;;;;;;;59.25;48.50;;;;;-147.17;100.00;50448.34;5011252;28;51272;-60
2022/01/14 11:18:59;;;;;;;;;54.25;46.00;;;;;-147.17;100.00;50450.31;5010703;28;51813;-60
2022/01/14 11:24:13;;;;;;;;;57.75;47.25;;;;;-147.17;100.00;50454.25;5012224;28;51025;-61
2022/01/14 11:26:40;;;;;;;;;59.75;48.50;;;;;-147.17;100.00;50470.00;5028956;28;51368;-60
2022/01/14 11:29:09;;;;;;;;;65.75;52.00;;;;;-147.17;100.00;50407.00;5020032;28;52004;-60
2022/01/14 11:31:37;;;;;;;;;57.00;47.50;;;;;-147.17;100.00;50450.31;5011766;28;52276;-60
2022/01/14 11:34:08;;;;;;;;;57.50;48.25;;;;;-147.17;100.00;50499.53;5023718;28;51129;-59